createdAt,value
2022-09-15T00:00:08.129Z,99438.01171875
2022-09-15T00:01:08.518Z,99441.21484375
2022-09-15T00:02:08.573Z,99438.38671875
2022-09-15T00:03:08.350Z,99439.171875
2022-09-15T00:04:11.233Z,99441.5625
2022-09-15T00:05:08.161Z,99440.1015625
2022-09-15T00:06:08.504Z,99438.81640625
2022-09-15T00:07:08.274Z,99437.1328125
2022-09-15T00:08:08.195Z,99439.6015625
2022-09-15T00:09:08.247Z,99438.046875
2022-09-15T00:10:08.169Z,99437.45703125
2022-09-15T00:11:08.514Z,99434.91796875
2022-09-15T00:12:08.177Z,99430.41796875
2022-09-15T00:13:08.086Z,99430.8671875
2022-09-15T00:14:08.068Z,99427.58984375
2022-09-15T00:15:11.108Z,99430.85546875
2022-09-15T00:16:08.519Z,99428.3203125
2022-09-15T00:17:08.493Z,99426.234375
2022-09-15T00:18:08.125Z,99425.6796875
2022-09-15T00:19:08.081Z,99427.53125
2022-09-15T00:20:08.187Z,99427.703125
2022-09-15T00:21:08.433Z,99423.671875
2022-09-15T00:22:08.195Z,99421.7734375
2022-09-15T00:23:08.207Z,99422.23046875
2022-09-15T00:24:08.219Z,99419.72265625
2022-09-15T00:25:08.266Z,99421.29296875
2022-09-15T00:26:14.093Z,99422.6796875
2022-09-15T00:27:08.160Z,99421.55078125
2022-09-15T00:28:08.189Z,99422.59375
2022-09-15T00:29:08.241Z,99421.4296875
2022-09-15T00:30:08.090Z,99421.41015625
2022-09-15T00:31:08.572Z,99419.99609375
2022-09-15T00:32:08.432Z,99419.43359375
2022-09-15T00:33:08.060Z,99418.2734375
2022-09-15T00:34:08.160Z,99426.0859375
2022-09-15T00:35:08.217Z,99422.96484375
2022-09-15T00:36:08.440Z,99421.62890625
2022-09-15T00:37:11.122Z,99422.1796875
2022-09-15T00:38:08.168Z,99423.49609375
2022-09-15T00:39:08.075Z,99423.203125
2022-09-15T00:40:08.157Z,99424.8984375
2022-09-15T00:41:08.543Z,99426.4296875
2022-09-15T00:42:08.150Z,99431.95703125
2022-09-15T00:43:08.214Z,99432.39453125
2022-09-15T00:44:08.216Z,99434.48828125
2022-09-15T00:45:08.237Z,99427.35546875
2022-09-15T00:46:08.579Z,99421.140625
2022-09-15T00:47:19.391Z,99426.34375
2022-09-15T00:48:11.168Z,99424.4140625
2022-09-15T00:49:08.159Z,99421.828125
2022-09-15T00:50:08.089Z,99420.703125
2022-09-15T00:51:08.507Z,99418.734375
2022-09-15T00:52:08.250Z,99422.23828125
2022-09-15T00:53:08.156Z,99418.21875
2022-09-15T00:54:08.093Z,99416.0703125
2022-09-15T00:55:08.226Z,99420.76171875
2022-09-15T00:56:08.458Z,99420.45703125
2022-09-15T00:57:08.121Z,99422.203125
2022-09-15T00:58:08.129Z,99420.71875
2022-09-15T00:59:11.073Z,99422.74609375
2022-09-15T01:00:08.180Z,99424.23046875
2022-09-15T01:01:08.609Z,99422.671875
2022-09-15T01:02:08.511Z,99423.41015625
2022-09-15T01:03:08.276Z,99425.1640625
2022-09-15T01:04:08.267Z,99425.49609375
2022-09-15T01:05:08.070Z,99427.9921875
2022-09-15T01:06:08.507Z,99425.53515625
2022-09-15T01:07:08.172Z,99427.0625
2022-09-15T01:08:08.055Z,99429.8046875
2022-09-15T01:09:08.072Z,99428.46875
2022-09-15T01:10:11.093Z,99425.453125
2022-09-15T01:11:08.522Z,99426.90625
2022-09-15T01:12:08.286Z,99424.5390625
2022-09-15T01:13:08.232Z,99423.15234375
2022-09-15T01:14:08.273Z,99421.21484375
2022-09-15T01:15:08.205Z,99421.5078125
2022-09-15T01:16:08.467Z,99422.08203125
2022-09-15T01:17:08.509Z,99419.55859375
2022-09-15T01:18:08.224Z,99424.91796875
2022-09-15T01:19:08.196Z,99421.0546875
2022-09-15T01:20:08.148Z,99421.484375
2022-09-15T01:21:14.154Z,99420.5390625
2022-09-15T01:22:08.165Z,99423.86328125
2022-09-15T01:23:08.178Z,99426.1328125
2022-09-15T01:24:08.167Z,99423.4921875
2022-09-15T01:25:08.186Z,99427.51953125
2022-09-15T01:26:08.508Z,99431.31640625
2022-09-15T01:27:30.450Z,99432.53125
2022-09-15T01:28:08.178Z,99434.84375
2022-09-15T01:29:08.059Z,99431.734375
2022-09-15T01:30:08.070Z,99432.55859375
2022-09-15T01:31:08.509Z,99429.84375
2022-09-15T01:32:14.092Z,99429.4609375
2022-09-15T01:33:08.141Z,99428.2421875
2022-09-15T01:34:08.079Z,99424.87109375
2022-09-15T01:35:08.176Z,99420.32421875
2022-09-15T01:36:08.437Z,99420.18359375
2022-09-15T01:37:08.209Z,99422.125
2022-09-15T01:38:08.183Z,99422.81640625
2022-09-15T01:39:08.169Z,99423.60546875
2022-09-15T01:40:08.390Z,99427.796875
2022-09-15T01:41:08.508Z,99428.17578125
2022-09-15T01:42:08.153Z,99429.515625
2022-09-15T01:43:11.080Z,99433.02734375
2022-09-15T01:44:08.285Z,99430.34375
2022-09-15T01:45:08.235Z,99430.1171875
2022-09-15T01:46:08.582Z,99428.03515625
2022-09-15T01:47:08.432Z,99424.3828125
2022-09-15T01:48:08.275Z,99422.60546875
2022-09-15T01:49:08.087Z,99419.78125
2022-09-15T01:50:08.168Z,99423.9140625
2022-09-15T01:51:08.511Z,99420.0078125
2022-09-15T01:52:08.290Z,99421.34765625
2022-09-15T01:53:08.152Z,99424.890625
2022-09-15T01:54:11.100Z,99423.1171875
2022-09-15T01:55:08.144Z,99427.49609375
2022-09-15T01:56:08.510Z,99427.24609375
2022-09-15T01:57:08.255Z,99421.66796875
2022-09-15T01:58:08.220Z,99421.71875
2022-09-15T01:59:08.284Z,99424.2265625
2022-09-15T02:00:08.216Z,99426.28515625
2022-09-15T02:01:08.579Z,99427.36328125
2022-09-15T02:02:08.524Z,99431.890625
2022-09-15T02:03:08.204Z,99431.25
2022-09-15T02:04:08.068Z,99430.93359375
2022-09-15T02:05:11.218Z,99430.00390625
2022-09-15T02:06:08.440Z,99427.46484375
2022-09-15T02:07:08.251Z,99428.07421875
2022-09-15T02:08:08.181Z,99424.00390625
2022-09-15T02:09:08.256Z,99425.68359375
2022-09-15T02:10:08.123Z,99422.5234375
2022-09-15T02:11:08.431Z,99424.8203125
2022-09-15T02:12:08.081Z,99424.85546875
2022-09-15T02:13:08.139Z,99426
2022-09-15T02:14:08.068Z,99431.54296875
2022-09-15T02:15:08.051Z,99429.515625
2022-09-15T02:16:14.163Z,99429.18359375
2022-09-15T02:17:08.430Z,99426.4921875
2022-09-15T02:18:08.157Z,99425.625
2022-09-15T02:19:08.080Z,99422.0859375
2022-09-15T02:20:08.064Z,99425.171875
2022-09-15T02:21:08.504Z,99424.75390625
2022-09-15T02:22:08.147Z,99426.51171875
2022-09-15T02:23:08.172Z,99428.765625
2022-09-15T02:24:08.293Z,99421.57421875
2022-09-15T02:25:08.273Z,99423.59765625
2022-09-15T02:26:08.542Z,99424.34765625
2022-09-15T02:27:11.068Z,99424.09765625
2022-09-15T02:28:08.176Z,99426.62890625
2022-09-15T02:29:08.147Z,99431.59765625
2022-09-15T02:30:08.208Z,99432.13671875
2022-09-15T02:31:08.487Z,99434.07421875
2022-09-15T02:32:08.477Z,99435.98828125
2022-09-15T02:33:08.141Z,99434.171875
2022-09-15T02:34:08.207Z,99434.3359375
2022-09-15T02:35:08.145Z,99433.5234375
2022-09-15T02:36:08.517Z,99434.5390625
2022-09-15T02:37:08.257Z,99437.546875
2022-09-15T02:38:11.101Z,99437.4375
2022-09-15T02:39:08.145Z,99440.51171875
2022-09-15T02:40:08.122Z,99443.125
2022-09-15T02:41:08.515Z,99439.7578125
2022-09-15T02:42:08.269Z,99444.21484375
2022-09-15T02:43:08.272Z,99440.39453125
2022-09-15T02:44:08.162Z,99440.6640625
2022-09-15T02:45:08.214Z,99440.46484375
2022-09-15T02:46:08.513Z,99440.734375
2022-09-15T02:47:08.433Z,99446.4453125
2022-09-15T02:48:08.257Z,99448.92578125
2022-09-15T02:49:11.162Z,99447.5703125
2022-09-15T02:50:08.230Z,99446.01953125
2022-09-15T02:51:08.612Z,99445.08984375
2022-09-15T02:52:08.276Z,99445.21875
2022-09-15T02:53:08.088Z,99443.328125
2022-09-15T02:54:08.062Z,99444.74609375
2022-09-15T02:55:08.210Z,99438.7265625
2022-09-15T02:56:08.441Z,99440.3359375
2022-09-15T02:57:08.159Z,99442.3359375
2022-09-15T02:58:08.091Z,99442.7734375
2022-09-15T02:59:08.057Z,99446.25390625
2022-09-15T03:00:11.119Z,99445.72265625
2022-09-15T03:01:08.497Z,99448.60546875
2022-09-15T03:02:08.463Z,99448.2421875
2022-09-15T03:03:08.267Z,99451.91796875
2022-09-15T03:04:08.293Z,99452.2890625
2022-09-15T03:05:08.252Z,99455.890625
2022-09-15T03:06:08.422Z,99453.0859375
2022-09-15T03:07:08.220Z,99457.109375
2022-09-15T03:08:08.177Z,99457.44140625
2022-09-15T03:09:08.043Z,99457.3125
2022-09-15T03:10:08.123Z,99456.74609375
2022-09-15T03:11:14.319Z,99456.1171875
2022-09-15T03:12:08.149Z,99453.31640625
2022-09-15T03:13:08.076Z,99457.875
2022-09-15T03:14:08.060Z,99458.6015625
2022-09-15T03:15:08.079Z,99458.76171875
2022-09-15T03:16:08.544Z,99459.78515625
2022-09-15T03:17:08.432Z,99460.0859375
2022-09-15T03:18:08.075Z,99458.9296875
2022-09-15T03:19:08.191Z,99459.98828125
2022-09-15T03:20:08.270Z,99460.3515625
2022-09-15T03:21:08.432Z,99464.578125
2022-09-15T03:22:11.213Z,99459.26171875
2022-09-15T03:23:08.263Z,99461.63671875
2022-09-15T03:24:08.136Z,99456.91015625
2022-09-15T03:25:08.186Z,99459.8203125
2022-09-15T03:26:08.509Z,99461.5390625
2022-09-15T03:27:08.156Z,99461.2109375
2022-09-15T03:28:08.213Z,99468.015625
2022-09-15T03:29:08.197Z,99469.76953125
2022-09-15T03:30:08.266Z,99472.30859375
2022-09-15T03:31:08.487Z,99466
2022-09-15T03:32:08.280Z,99469.9921875
2022-09-15T03:33:11.179Z,99470.4609375
2022-09-15T03:34:08.228Z,99476.91796875
2022-09-15T03:35:08.180Z,99471.3984375
2022-09-15T03:36:08.440Z,99472.421875
2022-09-15T03:37:08.159Z,99474.63671875
2022-09-15T03:38:08.068Z,99474.23046875
2022-09-15T03:39:08.066Z,99473.58984375
2022-09-15T03:40:08.153Z,99476.7265625
2022-09-15T03:41:08.607Z,99478.171875
2022-09-15T03:42:08.286Z,99476.67578125
2022-09-15T03:43:08.237Z,99479.125
2022-09-15T03:44:11.107Z,99483.73828125
2022-09-15T03:45:08.182Z,99479.0390625
2022-09-15T03:46:08.581Z,99482.4375
2022-09-15T03:47:09.158Z,99479.70703125
2022-09-15T03:48:08.207Z,99484.76171875
2022-09-15T03:49:08.068Z,99486.1953125
2022-09-15T03:50:08.160Z,99492.17578125
2022-09-15T03:51:08.522Z,99489.79296875
2022-09-15T03:52:08.181Z,99489.765625
2022-09-15T03:53:08.521Z,99493.43359375
2022-09-15T03:54:08.286Z,99496.2421875
2022-09-15T03:55:11.109Z,99497.171875
2022-09-15T03:56:08.263Z,99497.30078125
2022-09-15T03:57:08.149Z,99499.50390625
2022-09-15T03:58:08.513Z,99499.1640625
2022-09-15T03:59:08.142Z,99502.05859375
2022-09-15T04:00:08.062Z,99498.1328125
2022-09-15T04:01:08.093Z,99497.48828125
2022-09-15T04:02:08.535Z,99502.9453125
2022-09-15T04:03:08.445Z,99495.2421875
2022-09-15T04:04:08.145Z,99500.63671875
2022-09-15T04:05:08.076Z,99503.90234375
2022-09-15T04:06:11.109Z,99500.53125
2022-09-15T04:07:08.293Z,99499.54296875
2022-09-15T04:08:08.448Z,99502.3515625
2022-09-15T04:09:08.147Z,99501.93359375
2022-09-15T04:10:08.171Z,99503.25390625
2022-09-15T04:11:08.167Z,99502.47265625
2022-09-15T04:12:08.067Z,99505.8203125
2022-09-15T04:13:08.519Z,99511.328125
2022-09-15T04:14:08.177Z,99509.5625
2022-09-15T04:15:08.521Z,99505.78515625
2022-09-15T04:16:08.372Z,99508.4453125
2022-09-15T04:17:11.234Z,99504.87890625
2022-09-15T04:18:08.443Z,99507.61328125
2022-09-15T04:19:08.228Z,99508.890625
2022-09-15T04:20:08.083Z,99509.18359375
2022-09-15T04:21:08.244Z,99507.265625
2022-09-15T04:22:08.163Z,99511.06640625
2022-09-15T04:23:08.440Z,99509.23046875
2022-09-15T04:24:08.074Z,99514.46875
2022-09-15T04:25:08.054Z,99519.33984375
2022-09-15T04:26:08.088Z,99514.58203125
2022-09-15T04:27:08.229Z,99516.2265625
2022-09-15T04:28:14.129Z,99517.8203125
2022-09-15T04:29:08.234Z,99514.12109375
2022-09-15T04:30:08.520Z,99515.04296875
2022-09-15T04:31:08.389Z,99519.015625
2022-09-15T04:32:08.129Z,99518.4453125
2022-09-15T04:33:08.622Z,99521.44921875
2022-09-15T04:34:08.162Z,99518.16796875
2022-09-15T04:35:08.076Z,99515.9296875
2022-09-15T04:36:08.178Z,99517.84375
2022-09-15T04:37:08.139Z,99521.8203125
2022-09-15T04:38:08.152Z,99521.171875
2022-09-15T04:39:11.189Z,99528.30078125
2022-09-15T04:40:08.303Z,99521.84765625
2022-09-15T04:41:08.068Z,99523.01171875
2022-09-15T04:42:08.071Z,99525.48828125
2022-09-15T04:43:08.519Z,99524.33203125
2022-09-15T04:44:08.149Z,99521.90625
2022-09-15T04:45:08.457Z,99524.9140625
2022-09-15T04:46:08.336Z,99526.44140625
2022-09-15T04:47:08.082Z,99524.74609375
2022-09-15T04:48:08.516Z,99522.28515625
2022-09-15T04:49:08.122Z,99527.26953125
2022-09-15T04:50:11.106Z,99526.37109375
2022-09-15T04:51:08.191Z,99527.015625
2022-09-15T04:52:09.853Z,99529.6015625
2022-09-15T04:53:08.523Z,99527.77734375
2022-09-15T04:54:08.272Z,99531.921875
2022-09-15T04:55:08.286Z,99531.36328125
2022-09-15T04:56:08.068Z,99529.82421875
2022-09-15T04:57:08.113Z,99530.71484375
2022-09-15T04:58:08.517Z,99534.63671875
2022-09-15T04:59:08.161Z,99535.671875
2022-09-15T05:00:08.520Z,99531.96484375
2022-09-15T05:01:11.262Z,99534.49609375
2022-09-15T05:02:08.323Z,99529.22265625
2022-09-15T05:03:08.448Z,99535.15234375
2022-09-15T05:04:08.266Z,99535.37890625
2022-09-15T05:05:08.257Z,99535.57421875
2022-09-15T05:06:08.240Z,99539.94140625
2022-09-15T05:07:08.154Z,99540.77734375
2022-09-15T05:08:08.515Z,99541.49609375
2022-09-15T05:09:10.456Z,99543.77734375
2022-09-15T05:10:08.137Z,99546.92578125
2022-09-15T05:11:08.056Z,99546.13671875
2022-09-15T05:12:11.254Z,99545.375
2022-09-15T05:13:08.447Z,99545.7578125
2022-09-15T05:14:08.243Z,99546.796875
2022-09-15T05:15:08.522Z,99549.88671875
2022-09-15T05:16:08.253Z,99548.5859375
2022-09-15T05:17:08.073Z,99551.62890625
2022-09-15T05:18:08.446Z,99553.78125
2022-09-15T05:19:08.088Z,99551.56640625
2022-09-15T05:20:08.061Z,99551.4921875
2022-09-15T05:21:08.173Z,99552.27734375
2022-09-15T05:22:08.174Z,99551.94140625
2022-09-15T05:23:14.107Z,99550.76953125
2022-09-15T05:24:08.140Z,99556.31640625
2022-09-15T05:25:08.218Z,99554.79296875
2022-09-15T05:26:08.174Z,99558.90234375
2022-09-15T05:27:08.078Z,99560.0546875
2022-09-15T05:28:08.510Z,99562.23046875
2022-09-15T05:29:08.065Z,99562.19140625
2022-09-15T05:30:35.997Z,99562.7109375
2022-09-15T05:31:08.188Z,99562.734375
2022-09-15T05:32:08.069Z,99565.953125
2022-09-15T05:33:08.579Z,99567.4453125
2022-09-15T05:34:11.189Z,99568.41015625
2022-09-15T05:35:08.172Z,99569.4453125
2022-09-15T05:36:08.187Z,99570.70703125
2022-09-15T05:37:08.188Z,99577.63671875
2022-09-15T05:38:08.449Z,99577.7734375
2022-09-15T05:39:08.171Z,99578.05078125
2022-09-15T05:40:08.632Z,99577.90234375
2022-09-15T05:41:08.071Z,99581.7421875
2022-09-15T05:42:08.148Z,99579.796875
2022-09-15T05:43:08.520Z,99578.4453125
2022-09-15T05:44:08.146Z,99585.6796875
2022-09-15T05:45:11.246Z,99579.15234375
2022-09-15T05:46:08.340Z,99581.72265625
2022-09-15T05:47:08.244Z,99584.03515625
2022-09-15T05:48:08.517Z,99587.3515625
2022-09-15T05:49:08.266Z,99586.61328125
2022-09-15T05:50:08.164Z,99585.81640625
2022-09-15T05:51:08.204Z,99593.4765625
2022-09-15T05:52:08.064Z,99595.16796875
2022-09-15T05:53:08.515Z,99599.69921875
2022-09-15T05:54:08.274Z,99598.953125
2022-09-15T05:55:08.154Z,99599.8203125
2022-09-15T05:56:11.187Z,99601.08984375
2022-09-15T05:57:08.256Z,99601.921875
2022-09-15T05:58:08.525Z,99601.69140625
2022-09-15T05:59:08.262Z,99601.34765625
2022-09-15T06:00:08.452Z,99602.2109375
2022-09-15T06:01:08.248Z,99604.30859375
2022-09-15T06:02:08.196Z,99607.203125
2022-09-15T06:03:08.599Z,99611.58984375
2022-09-15T06:04:08.253Z,99609.6875
2022-09-15T06:05:08.184Z,99615.53515625
2022-09-15T06:06:08.232Z,99615.54296875
2022-09-15T06:07:11.203Z,99614.4296875
2022-09-15T06:08:08.451Z,99617.67578125
2022-09-15T06:09:08.564Z,99617.73828125
2022-09-15T06:10:08.274Z,99621.87890625
2022-09-15T06:11:08.279Z,99623.76171875
2022-09-15T06:12:08.127Z,99619.4296875
2022-09-15T06:13:08.220Z,99620.33203125
2022-09-15T06:14:08.147Z,99622.5859375
2022-09-15T06:15:08.178Z,99617.29296875
2022-09-15T06:16:08.221Z,99616.66796875
2022-09-15T06:17:08.078Z,99614.41015625
2022-09-15T06:18:14.108Z,99619.37890625
2022-09-15T06:19:08.136Z,99618.44921875
2022-09-15T06:20:08.188Z,99619.46484375
2022-09-15T06:21:08.244Z,99617.6875
2022-09-15T06:22:08.074Z,99616.95703125
2022-09-15T06:23:08.523Z,99619.14453125
2022-09-15T06:24:08.178Z,99620.81640625
2022-09-15T06:25:08.073Z,99621.68359375
2022-09-15T06:26:08.092Z,99621.08203125
2022-09-15T06:27:08.081Z,99624.18359375
2022-09-15T06:28:08.521Z,99626.77734375
2022-09-15T06:29:11.091Z,99627.1328125
2022-09-15T06:30:08.447Z,99632.5234375
2022-09-15T06:31:08.273Z,99632.359375
2022-09-15T06:32:08.324Z,99632.85546875
2022-09-15T06:33:08.445Z,99633.234375
2022-09-15T06:34:08.225Z,99633.2109375
2022-09-15T06:35:08.159Z,99636.1015625
2022-09-15T06:36:08.080Z,99637.0390625
2022-09-15T06:37:08.076Z,99638.94921875
2022-09-15T06:38:08.517Z,99641.8515625
2022-09-15T06:39:08.148Z,99640.86328125
2022-09-15T06:40:11.176Z,99643.4921875
2022-09-15T06:41:08.146Z,99644.5625
2022-09-15T06:42:09.553Z,99643.1484375
2022-09-15T06:43:08.535Z,99642.07421875
2022-09-15T06:44:08.194Z,99642.796875
2022-09-15T06:45:08.181Z,99640.82421875
2022-09-15T06:46:08.301Z,99642.359375
2022-09-15T06:47:08.216Z,99640.1640625
2022-09-15T06:48:23.936Z,99643.03125
2022-09-15T06:49:08.213Z,99639.921875
2022-09-15T06:50:08.074Z,99642.3671875
2022-09-15T06:51:11.167Z,99646.20703125
2022-09-15T06:52:08.232Z,99638.49609375
2022-09-15T06:53:08.518Z,99645.05078125
2022-09-15T06:54:08.230Z,99646.15625
2022-09-15T06:55:08.180Z,99650.7578125
2022-09-15T06:56:08.078Z,99650.06640625
2022-09-15T06:57:08.066Z,99650.05078125
2022-09-15T06:58:08.523Z,99654.3515625
2022-09-15T06:59:08.152Z,99658.2265625
2022-09-15T07:00:08.516Z,99657.2109375
2022-09-15T07:01:08.213Z,99657.6015625
2022-09-15T07:02:11.261Z,99658.88671875
2022-09-15T07:03:08.463Z,99659.07421875
2022-09-15T07:04:08.063Z,99658.19140625
2022-09-15T07:05:08.195Z,99657.18359375
2022-09-15T07:06:08.191Z,99660.66796875
2022-09-15T07:07:08.535Z,99659.18359375
2022-09-15T07:08:08.214Z,99656.98046875
2022-09-15T07:09:08.186Z,99659.31640625
2022-09-15T07:10:08.287Z,99660.98046875
2022-09-15T07:11:08.173Z,99661.08203125
2022-09-15T07:12:08.536Z,99663.453125
2022-09-15T07:13:11.190Z,99662.8671875
2022-09-15T07:14:08.205Z,99665.39453125
2022-09-15T07:15:08.450Z,99665.47265625
2022-09-15T07:16:08.269Z,99664.37890625
2022-09-15T07:17:08.512Z,99667.22265625
2022-09-15T07:18:08.183Z,99667.625
2022-09-15T07:19:08.093Z,99672.640625
2022-09-15T07:20:08.081Z,99669.90234375
2022-09-15T07:21:08.135Z,99673.38671875
2022-09-15T07:22:08.448Z,99670.7734375
2022-09-15T07:23:08.137Z,99674.33203125
2022-09-15T07:24:11.079Z,99671.609375
2022-09-15T07:25:08.175Z,99675.01953125
2022-09-15T07:26:08.059Z,99677.25
2022-09-15T07:27:08.518Z,99675.765625
2022-09-15T07:28:08.137Z,99680.59765625
2022-09-15T07:29:08.204Z,99684.765625
2022-09-15T07:30:08.469Z,99683.4765625
2022-09-15T07:31:08.090Z,99690.3515625
2022-09-15T07:32:08.579Z,99688.92578125
2022-09-15T07:33:08.219Z,99691.234375
2022-09-15T07:34:08.207Z,99690.7421875
2022-09-15T07:35:11.170Z,99694.97265625
2022-09-15T07:36:08.147Z,99696.31640625
2022-09-15T07:37:08.531Z,99695.89453125
2022-09-15T07:38:08.209Z,99695.66015625
2022-09-15T07:39:08.178Z,99693.26171875
2022-09-15T07:40:08.299Z,99691.796875
2022-09-15T07:41:08.085Z,99693.94921875
2022-09-15T07:42:08.057Z,99692.54296875
2022-09-15T07:43:08.069Z,99694.00390625
2022-09-15T07:44:08.201Z,99693.60546875
2022-09-15T07:45:08.188Z,99696.515625
2022-09-15T07:46:11.222Z,99696.13671875
2022-09-15T07:47:08.446Z,99700.0234375
2022-09-15T07:48:08.243Z,99703.95703125
2022-09-15T07:49:08.067Z,99698.90625
2022-09-15T07:50:08.074Z,99701.3046875
2022-09-15T07:51:08.081Z,99703.546875
2022-09-15T07:52:08.450Z,99700.61328125
2022-09-15T07:53:08.163Z,99704.640625
2022-09-15T07:54:08.211Z,99706.4921875
2022-09-15T07:55:08.243Z,99708.79296875
2022-09-15T07:56:08.183Z,99711.29296875
2022-09-15T07:57:14.165Z,99707.921875
2022-09-15T07:58:08.148Z,99709.546875
2022-09-15T07:59:08.173Z,99708.87109375
2022-09-15T08:00:08.530Z,99712.546875
2022-09-15T08:01:08.375Z,99707.953125
2022-09-15T08:02:08.568Z,99710.51953125
2022-09-15T08:03:08.171Z,99712.51171875
2022-09-15T08:04:08.189Z,99711.02734375
2022-09-15T08:05:08.149Z,99711.92578125
2022-09-15T08:06:08.086Z,99711.87890625
2022-09-15T08:07:08.531Z,99713.02734375
2022-09-15T08:08:11.207Z,99721.95703125
2022-09-15T08:09:08.244Z,99716.109375
2022-09-15T08:10:08.067Z,99714.69140625
2022-09-15T08:11:08.118Z,99722.125
2022-09-15T08:12:08.543Z,99719.82421875
2022-09-15T08:13:08.201Z,99725.9453125
2022-09-15T08:14:08.208Z,99722.19921875
2022-09-15T08:15:08.226Z,99732.1953125
2022-09-15T08:16:08.247Z,99734.828125
2022-09-15T08:17:11.560Z,99733.8515625
2022-09-15T08:18:08.266Z,99735.87890625
2022-09-15T08:19:11.202Z,99742.796875
2022-09-15T08:20:08.175Z,99741.171875
2022-09-15T08:21:08.138Z,99742.3984375
2022-09-15T08:22:08.533Z,99738.65625
2022-09-15T08:23:08.246Z,99741.69140625
2022-09-15T08:24:08.173Z,99741.77734375
2022-09-15T08:25:08.071Z,99741.1171875
2022-09-15T08:26:13.073Z,99736.05859375
2022-09-15T08:27:08.518Z,99739.7421875
2022-09-15T08:28:08.160Z,99738.7109375
2022-09-15T08:29:08.055Z,99742.0390625
2022-09-15T08:30:14.118Z,99744.34765625
2022-09-15T08:31:08.249Z,99749.28125
2022-09-15T08:32:08.547Z,99742.91015625
2022-09-15T08:33:08.190Z,99746.125
2022-09-15T08:34:08.057Z,99748.421875
2022-09-15T08:35:08.058Z,99743.37890625
2022-09-15T08:36:08.052Z,99746.91796875
2022-09-15T08:37:08.523Z,99751.75
2022-09-15T08:38:08.294Z,99748.3125
2022-09-15T08:39:08.247Z,99755.80859375
2022-09-15T08:40:08.214Z,99756.1796875
2022-09-15T08:41:11.069Z,99758.6484375
2022-09-15T08:42:08.459Z,99761.75390625
2022-09-15T08:43:08.180Z,99764.02734375
2022-09-15T08:44:08.142Z,99765.1484375
2022-09-15T08:45:08.518Z,99765.1015625
2022-09-15T08:46:08.316Z,99767.390625
2022-09-15T08:47:08.457Z,99767.1171875
2022-09-15T08:48:08.096Z,99764.2109375
2022-09-15T08:49:08.059Z,99767.75390625
2022-09-15T08:50:08.059Z,99765.98046875
2022-09-15T08:51:08.185Z,99768.36328125
2022-09-15T08:52:14.155Z,99762.31640625
2022-09-15T08:53:08.168Z,99764.7265625
2022-09-15T08:54:08.068Z,99765.12109375
2022-09-15T08:55:08.158Z,99765.5859375
2022-09-15T08:56:10.028Z,99767.5
2022-09-15T08:57:08.528Z,99764.59765625
2022-09-15T08:58:08.175Z,99765.31640625
2022-09-15T08:59:08.214Z,99761.66796875
2022-09-15T09:00:08.453Z,99764.1953125
2022-09-15T09:01:08.140Z,99764.26171875
2022-09-15T09:02:08.608Z,99760.76171875
2022-09-15T09:03:11.202Z,99761.80859375
2022-09-15T09:04:08.210Z,99762.2109375
2022-09-15T09:05:08.263Z,99761.265625
2022-09-15T09:06:08.146Z,99760.56640625
2022-09-15T09:07:08.522Z,99764.17578125
2022-09-15T09:08:08.264Z,99762.3515625
2022-09-15T09:09:08.210Z,99765.9140625
2022-09-15T09:10:08.195Z,99764.9765625
2022-09-15T09:11:08.071Z,99763.16796875
2022-09-15T09:12:08.534Z,99764.8515625
2022-09-15T09:13:08.143Z,99766.40234375
2022-09-15T09:14:11.141Z,99767.82421875
2022-09-15T09:15:08.235Z,99765.828125
2022-09-15T09:16:08.111Z,99766.46484375
2022-09-15T09:17:08.517Z,99767.8515625
2022-09-15T09:18:08.237Z,99764.88671875
2022-09-15T09:19:08.068Z,99765.78125
2022-09-15T09:20:08.259Z,99769.36328125
2022-09-15T09:21:08.184Z,99772.12890625
2022-09-15T09:22:08.447Z,99772.33984375
2022-09-15T09:23:08.140Z,99770.84765625
2022-09-15T09:24:08.213Z,99772.1953125
2022-09-15T09:25:26.236Z,99767.96484375
2022-09-15T09:26:10.513Z,99770.4609375
2022-09-15T09:27:08.274Z,99768.58984375
2022-09-15T09:28:08.189Z,99770.53125
2022-09-15T09:29:08.127Z,99769.33984375
2022-09-15T09:30:08.523Z,99772.51953125
2022-09-15T09:31:08.397Z,99770.0078125
2022-09-15T09:32:08.517Z,99769.5703125
2022-09-15T09:33:08.180Z,99765.28515625
2022-09-15T09:34:08.099Z,99764.91796875
2022-09-15T09:35:08.172Z,99766.1171875
2022-09-15T09:36:11.108Z,99763.8984375
2022-09-15T09:37:08.444Z,99765.203125
2022-09-15T09:38:08.145Z,99762.51171875
2022-09-15T09:39:08.063Z,99762.13671875
2022-09-15T09:40:08.311Z,99764.37109375
2022-09-15T09:41:08.123Z,99763.88671875
2022-09-15T09:42:08.449Z,99761.55078125
2022-09-15T09:43:08.219Z,99761.390625
2022-09-15T09:44:08.270Z,99762.86328125
2022-09-15T09:45:08.256Z,99760.68359375
2022-09-15T09:46:08.269Z,99768.921875
2022-09-15T09:47:14.181Z,99770.0390625
2022-09-15T09:48:08.193Z,99768.28125
2022-09-15T09:49:08.178Z,99768.2578125
2022-09-15T09:50:08.191Z,99765.99609375
2022-09-15T09:51:08.172Z,99771.0546875
2022-09-15T09:52:08.625Z,99777.2890625
2022-09-15T09:53:08.062Z,99774.59765625
2022-09-15T09:54:08.200Z,99776.38671875
2022-09-15T09:55:08.264Z,99777.57421875
2022-09-15T09:56:08.071Z,99773.26953125
2022-09-15T09:57:08.448Z,99770.24609375
2022-09-15T09:58:11.130Z,99772.578125
2022-09-15T09:59:08.251Z,99769.1015625
2022-09-15T10:00:08.526Z,99762.28515625
2022-09-15T10:01:08.199Z,99758.0546875
2022-09-15T10:02:08.521Z,99763.19921875
2022-09-15T10:03:08.169Z,99767.73828125
2022-09-15T10:04:08.089Z,99761.12890625
2022-09-15T10:05:08.170Z,99764.7734375
2022-09-15T10:06:08.161Z,99762.51953125
2022-09-15T10:07:08.513Z,99763.1953125
2022-09-15T10:08:08.298Z,99762.02734375
2022-09-15T10:09:11.077Z,99764.7109375
2022-09-15T10:10:08.278Z,99761.48828125
2022-09-15T10:11:08.282Z,99764.375